Highley, United Kingdom
Current Conditions -  °F | °C
As of 3:50 AM on Thursday 18 Dec 2014 (Local Time) from EGBB Reporting Station
Overcast Overcast  
Wind Chill: 12°   Ceiling: 800
Heat Index: 12°   Visibility: 6mi
Dew Point: 11°   Wind: 8mph
Humidity: 94%   Direction: 240°WSW
Pressure: 29.71"   Gusts: NA
Location:  52.45°N, 2.38°W
Report Text: EGBB 180350Z AUTO 24007KT 190V280 9999 BKN008/// BKN013/// OVC020/// 12/11 Q1006
Loading
Personal Weather Stations






























Interactive Weather Map New forecast layout! Learn more

10-Day Weather Forecast

Advertisements
Track Severe Weather on mobile